sensor_id;sensor_type;location;lat;lon;timestamp;temperature;humidity
68215;DHT22;55036;52.138;5.236;2023-02-28T00:01:27;3.10;75.00
68215;DHT22;55036;52.138;5.236;2023-02-28T00:03:55;3.20;74.90
68215;DHT22;55036;52.138;5.236;2023-02-28T00:06:22;3.20;74.80
68215;DHT22;55036;52.138;5.236;2023-02-28T00:08:49;3.30;75.00
68215;DHT22;55036;52.138;5.236;2023-02-28T00:11:16;3.30;75.00
68215;DHT22;55036;52.138;5.236;2023-02-28T00:13:45;3.30;75.30
68215;DHT22;55036;52.138;5.236;2023-02-28T00:16:18;3.40;75.20
68215;DHT22;55036;52.138;5.236;2023-02-28T00:18:45;3.40;75.00
68215;DHT22;55036;52.138;5.236;2023-02-28T00:21:14;3.30;75.10
68215;DHT22;55036;52.138;5.236;2023-02-28T00:23:40;3.40;75.10
68215;DHT22;55036;52.138;5.236;2023-02-28T00:26:07;3.30;74.90
68215;DHT22;55036;52.138;5.236;2023-02-28T00:28:34;3.30;75.10
68215;DHT22;55036;52.138;5.236;2023-02-28T00:31:01;3.40;75.10
68215;DHT22;55036;52.138;5.236;2023-02-28T00:33:28;3.40;75.30
68215;DHT22;55036;52.138;5.236;2023-02-28T00:36:06;3.50;75.60
68215;DHT22;55036;52.138;5.236;2023-02-28T00:38:33;3.50;75.70
68215;DHT22;55036;52.138;5.236;2023-02-28T00:41:00;3.50;75.90
68215;DHT22;55036;52.138;5.236;2023-02-28T00:43:33;3.50;76.20
68215;DHT22;55036;52.138;5.236;2023-02-28T00:46:00;3.60;76.30
68215;DHT22;55036;52.138;5.236;2023-02-28T00:48:26;3.60;75.90
68215;DHT22;55036;52.138;5.236;2023-02-28T00:50:54;3.60;75.70
68215;DHT22;55036;52.138;5.236;2023-02-28T00:53:20;3.60;75.70
68215;DHT22;55036;52.138;5.236;2023-02-28T00:55:49;3.60;75.80
68215;DHT22;55036;52.138;5.236;2023-02-28T00:58:16;3.70;76.20
68215;DHT22;55036;52.138;5.236;2023-02-28T01:00:43;3.70;76.50
68215;DHT22;55036;52.138;5.236;2023-02-28T01:03:09;3.70;76.40
68215;DHT22;55036;52.138;5.236;2023-02-28T01:05:36;3.70;76.20
68215;DHT22;55036;52.138;5.236;2023-02-28T01:08:03;3.70;77.00
68215;DHT22;55036;52.138;5.236;2023-02-28T01:10:29;3.70;76.10
68215;DHT22;55036;52.138;5.236;2023-02-28T01:12:58;3.70;76.00
68215;DHT22;55036;52.138;5.236;2023-02-28T01:15:24;3.70;76.00
68215;DHT22;55036;52.138;5.236;2023-02-28T01:17:51;3.80;76.30
68215;DHT22;55036;52.138;5.236;2023-02-28T01:20:18;3.80;76.10
68215;DHT22;55036;52.138;5.236;2023-02-28T01:22:45;3.80;76.20
68215;DHT22;55036;52.138;5.236;2023-02-28T01:25:11;3.70;76.30
68215;DHT22;55036;52.138;5.236;2023-02-28T01:27:38;3.60;76.60
68215;DHT22;55036;52.138;5.236;2023-02-28T01:30:07;3.70;76.80
68215;DHT22;55036;52.138;5.236;2023-02-28T01:32:35;3.80;76.80
68215;DHT22;55036;52.138;5.236;2023-02-28T01:35:02;3.90;76.80
68215;DHT22;55036;52.138;5.236;2023-02-28T01:37:29;3.90;76.60
68215;DHT22;55036;52.138;5.236;2023-02-28T01:39:56;3.90;76.50
68215;DHT22;55036;52.138;5.236;2023-02-28T01:42:23;3.90;76.40
68215;DHT22;55036;52.138;5.236;2023-02-28T01:45:00;3.90;76.40
68215;DHT22;55036;52.138;5.236;2023-02-28T01:47:35;4.00;76.70
68215;DHT22;55036;52.138;5.236;2023-02-28T01:50:07;4.00;76.50
68215;DHT22;55036;52.138;5.236;2023-02-28T01:52:34;4.00;76.70
68215;DHT22;55036;52.138;5.236;2023-02-28T01:55:04;4.00;76.70
68215;DHT22;55036;52.138;5.236;2023-02-28T01:57:35;4.00;76.70
68215;DHT22;55036;52.138;5.236;2023-02-28T02:00:08;4.00;76.60
68215;DHT22;55036;52.138;5.236;2023-02-28T02:02:36;4.10;76.60
68215;DHT22;55036;52.138;5.236;2023-02-28T02:05:06;4.10;76.60
68215;DHT22;55036;52.138;5.236;2023-02-28T02:07:36;4.10;76.70
68215;DHT22;55036;52.138;5.236;2023-02-28T02:10:10;4.10;76.70
68215;DHT22;55036;52.138;5.236;2023-02-28T02:43:28;4.20;77.40
68215;DHT22;55036;52.138;5.236;2023-02-28T02:48:56;4.30;77.40
68215;DHT22;55036;52.138;5.236;2023-02-28T02:51:24;4.30;77.30
68215;DHT22;55036;52.138;5.236;2023-02-28T02:53:55;4.30;77.60
68215;DHT22;55036;52.138;5.236;2023-02-28T02:56:27;4.30;77.70
68215;DHT22;55036;52.138;5.236;2023-02-28T02:58:59;4.30;77.60
68215;DHT22;55036;52.138;5.236;2023-02-28T03:01:29;4.30;77.60
68215;DHT22;55036;52.138;5.236;2023-02-28T03:04:01;4.30;77.70
68215;DHT22;55036;52.138;5.236;2023-02-28T03:06:29;4.40;77.90
68215;DHT22;55036;52.138;5.236;2023-02-28T03:08:56;4.40;77.80
68215;DHT22;55036;52.138;5.236;2023-02-28T03:11:23;4.40;78.00
68215;DHT22;55036;52.138;5.236;2023-02-28T03:13:55;4.40;78.00
68215;DHT22;55036;52.138;5.236;2023-02-28T03:21:56;4.40;77.70
68215;DHT22;55036;52.138;5.236;2023-02-28T03:24:39;4.40;78.00
68215;DHT22;55036;52.138;5.236;2023-02-28T03:27:15;4.40;77.90
68215;DHT22;55036;52.138;5.236;2023-02-28T03:29:50;4.40;78.20
68215;DHT22;55036;52.138;5.236;2023-02-28T03:32:31;4.40;78.40
68215;DHT22;55036;52.138;5.236;2023-02-28T03:35:11;4.40;78.60
68215;DHT22;55036;52.138;5.236;2023-02-28T03:37:40;4.40;78.60
68215;DHT22;55036;52.138;5.236;2023-02-28T03:40:13;4.40;78.40
68215;DHT22;55036;52.138;5.236;2023-02-28T03:42:43;4.40;78.30
68215;DHT22;55036;52.138;5.236;2023-02-28T03:45:21;4.40;78.10
68215;DHT22;55036;52.138;5.236;2023-02-28T03:48:10;4.40;78.00
68215;DHT22;55036;52.138;5.236;2023-02-28T03:50:43;4.40;78.10
68215;DHT22;55036;52.138;5.236;2023-02-28T03:53:22;4.40;78.20
68215;DHT22;55036;52.138;5.236;2023-02-28T03:56:05;4.40;78.10
68215;DHT22;55036;52.138;5.236;2023-02-28T03:58:47;4.40;78.20
68215;DHT22;55036;52.138;5.236;2023-02-28T04:01:38;4.40;78.50
68215;DHT22;55036;52.138;5.236;2023-02-28T04:04:09;4.50;78.60
68215;DHT22;55036;52.138;5.236;2023-02-28T04:06:36;4.40;78.70
68215;DHT22;55036;52.138;5.236;2023-02-28T04:09:05;4.30;78.90
68215;DHT22;55036;52.138;5.236;2023-02-28T04:11:37;4.30;79.30
68215;DHT22;55036;52.138;5.236;2023-02-28T04:14:05;4.20;80.10
68215;DHT22;55036;52.138;5.236;2023-02-28T04:16:36;4.20;80.10
68215;DHT22;55036;52.138;5.236;2023-02-28T04:19:04;4.30;80.10
68215;DHT22;55036;52.138;5.236;2023-02-28T04:21:34;4.30;80.10
68215;DHT22;55036;52.138;5.236;2023-02-28T04:24:01;4.40;80.20
68215;DHT22;55036;52.138;5.236;2023-02-28T04:26:33;4.40;80.10
68215;DHT22;55036;52.138;5.236;2023-02-28T04:29:03;4.50;80.00
68215;DHT22;55036;52.138;5.236;2023-02-28T04:31:30;4.40;79.90
68215;DHT22;55036;52.138;5.236;2023-02-28T04:33:57;4.30;80.50
68215;DHT22;55036;52.138;5.236;2023-02-28T04:36:24;4.30;80.50
68215;DHT22;55036;52.138;5.236;2023-02-28T04:38:51;4.30;80.40
68215;DHT22;55036;52.138;5.236;2023-02-28T04:41:18;4.40;80.30
68215;DHT22;55036;52.138;5.236;2023-02-28T04:43:45;4.40;80.30
68215;DHT22;55036;52.138;5.236;2023-02-28T04:46:12;4.40;80.20
68215;DHT22;55036;52.138;5.236;2023-02-28T04:48:40;4.50;80.20
68215;DHT22;55036;52.138;5.236;2023-02-28T04:51:09;4.40;80.30
68215;DHT22;55036;52.138;5.236;2023-02-28T04:53:37;4.40;80.00
68215;DHT22;55036;52.138;5.236;2023-02-28T04:56:06;4.50;79.80
68215;DHT22;55036;52.138;5.236;2023-02-28T04:58:34;4.40;79.10
68215;DHT22;55036;52.138;5.236;2023-02-28T05:01:17;4.40;79.20
68215;DHT22;55036;52.138;5.236;2023-02-28T05:03:44;4.30;78.40
68215;DHT22;55036;52.138;5.236;2023-02-28T05:06:11;4.30;78.50
68215;DHT22;55036;52.138;5.236;2023-02-28T05:08:39;4.30;78.40
68215;DHT22;55036;52.138;5.236;2023-02-28T05:11:17;4.30;78.10
68215;DHT22;55036;52.138;5.236;2023-02-28T05:13:44;4.30;77.70
68215;DHT22;55036;52.138;5.236;2023-02-28T05:16:11;4.20;76.80
68215;DHT22;55036;52.138;5.236;2023-02-28T05:18:38;4.20;76.90
68215;DHT22;55036;52.138;5.236;2023-02-28T05:21:05;4.20;75.90
68215;DHT22;55036;52.138;5.236;2023-02-28T05:23:32;4.10;75.90
68215;DHT22;55036;52.138;5.236;2023-02-28T05:25:59;4.10;74.70
68215;DHT22;55036;52.138;5.236;2023-02-28T05:28:26;4.00;75.60
68215;DHT22;55036;52.138;5.236;2023-02-28T05:30:52;4.10;75.90
68215;DHT22;55036;52.138;5.236;2023-02-28T05:33:19;4.10;75.60
68215;DHT22;55036;52.138;5.236;2023-02-28T05:35:46;4.10;75.50
68215;DHT22;55036;52.138;5.236;2023-02-28T05:38:12;4.10;75.40
68215;DHT22;55036;52.138;5.236;2023-02-28T05:40:39;4.10;75.30
68215;DHT22;55036;52.138;5.236;2023-02-28T05:43:10;4.00;75.20
68215;DHT22;55036;52.138;5.236;2023-02-28T05:45:37;4.00;75.20
68215;DHT22;55036;52.138;5.236;2023-02-28T05:48:03;4.00;75.10
68215;DHT22;55036;52.138;5.236;2023-02-28T05:50:30;3.80;75.80
68215;DHT22;55036;52.138;5.236;2023-02-28T05:52:57;3.70;76.10
68215;DHT22;55036;52.138;5.236;2023-02-28T05:55:23;3.80;76.30
68215;DHT22;55036;52.138;5.236;2023-02-28T05:57:50;3.80;76.30
68215;DHT22;55036;52.138;5.236;2023-02-28T06:00:17;3.80;76.40
68215;DHT22;55036;52.138;5.236;2023-02-28T06:02:44;3.80;76.50
68215;DHT22;55036;52.138;5.236;2023-02-28T06:05:16;3.80;76.70
68215;DHT22;55036;52.138;5.236;2023-02-28T06:07:43;3.70;77.70
68215;DHT22;55036;52.138;5.236;2023-02-28T06:10:11;3.60;77.60
68215;DHT22;55036;52.138;5.236;2023-02-28T06:12:38;3.40;78.00
68215;DHT22;55036;52.138;5.236;2023-02-28T06:15:05;3.50;77.90
68215;DHT22;55036;52.138;5.236;2023-02-28T06:17:32;3.50;78.00
68215;DHT22;55036;52.138;5.236;2023-02-28T06:19:58;3.50;78.20
68215;DHT22;55036;52.138;5.236;2023-02-28T06:22:25;3.50;79.50
68215;DHT22;55036;52.138;5.236;2023-02-28T06:24:52;3.50;78.50
68215;DHT22;55036;52.138;5.236;2023-02-28T06:27:19;3.50;78.70
68215;DHT22;55036;52.138;5.236;2023-02-28T06:29:46;3.50;79.00
68215;DHT22;55036;52.138;5.236;2023-02-28T06:32:13;3.50;78.80
68215;DHT22;55036;52.138;5.236;2023-02-28T06:34:40;3.50;78.70
68215;DHT22;55036;52.138;5.236;2023-02-28T06:37:07;3.50;78.60
68215;DHT22;55036;52.138;5.236;2023-02-28T06:39:33;3.50;78.70
68215;DHT22;55036;52.138;5.236;2023-02-28T06:42:00;3.50;78.80
68215;DHT22;55036;52.138;5.236;2023-02-28T06:44:27;3.50;79.00
68215;DHT22;55036;52.138;5.236;2023-02-28T06:47:04;3.50;79.10
68215;DHT22;55036;52.138;5.236;2023-02-28T06:49:32;3.50;79.20
68215;DHT22;55036;52.138;5.236;2023-02-28T06:51:59;3.40;79.30
68215;DHT22;55036;52.138;5.236;2023-02-28T06:54:26;3.50;80.00
68215;DHT22;55036;52.138;5.236;2023-02-28T06:56:53;3.50;80.20
68215;DHT22;55036;52.138;5.236;2023-02-28T06:59:23;3.60;80.00
68215;DHT22;55036;52.138;5.236;2023-02-28T07:01:49;3.50;79.90
68215;DHT22;55036;52.138;5.236;2023-02-28T07:04:16;3.50;79.80
68215;DHT22;55036;52.138;5.236;2023-02-28T07:06:43;3.50;80.00
68215;DHT22;55036;52.138;5.236;2023-02-28T07:09:10;3.50;80.00
68215;DHT22;55036;52.138;5.236;2023-02-28T07:11:37;3.50;80.00
68215;DHT22;55036;52.138;5.236;2023-02-28T07:14:03;3.50;80.00
68215;DHT22;55036;52.138;5.236;2023-02-28T07:16:30;3.60;80.10
68215;DHT22;55036;52.138;5.236;2023-02-28T07:18:57;3.60;80.20
68215;DHT22;55036;52.138;5.236;2023-02-28T07:21:24;3.60;80.20
68215;DHT22;55036;52.138;5.236;2023-02-28T07:23:51;3.60;80.40
68215;DHT22;55036;52.138;5.236;2023-02-28T07:26:19;3.60;80.60
68215;DHT22;55036;52.138;5.236;2023-02-28T07:28:48;3.70;80.40
68215;DHT22;55036;52.138;5.236;2023-02-28T07:31:16;3.70;80.80
68215;DHT22;55036;52.138;5.236;2023-02-28T07:33:43;3.70;80.70
68215;DHT22;55036;52.138;5.236;2023-02-28T07:36:14;3.70;80.70
68215;DHT22;55036;52.138;5.236;2023-02-28T07:38:43;3.70;81.00
68215;DHT22;55036;52.138;5.236;2023-02-28T07:41:18;3.80;81.90
68215;DHT22;55036;52.138;5.236;2023-02-28T07:43:46;3.70;80.90
68215;DHT22;55036;52.138;5.236;2023-02-28T07:46:14;3.80;81.00
68215;DHT22;55036;52.138;5.236;2023-02-28T07:48:44;3.80;81.10
68215;DHT22;55036;52.138;5.236;2023-02-28T07:51:11;3.70;81.50
68215;DHT22;55036;52.138;5.236;2023-02-28T07:53:38;3.80;81.40
68215;DHT22;55036;52.138;5.236;2023-02-28T07:56:05;3.80;81.30
68215;DHT22;55036;52.138;5.236;2023-02-28T07:58:32;3.80;81.60
68215;DHT22;55036;52.138;5.236;2023-02-28T08:01:09;3.90;81.60
68215;DHT22;55036;52.138;5.236;2023-02-28T08:03:37;3.80;81.50
68215;DHT22;55036;52.138;5.236;2023-02-28T08:06:06;3.80;81.40
68215;DHT22;55036;52.138;5.236;2023-02-28T08:08:33;3.80;81.70
68215;DHT22;55036;52.138;5.236;2023-02-28T08:11:01;3.80;82.20
68215;DHT22;55036;52.138;5.236;2023-02-28T08:13:29;3.90;82.20
68215;DHT22;55036;52.138;5.236;2023-02-28T08:15:56;4.00;82.00
68215;DHT22;55036;52.138;5.236;2023-02-28T08:18:24;3.90;81.90
68215;DHT22;55036;52.138;5.236;2023-02-28T08:20:50;3.90;81.90
68215;DHT22;55036;52.138;5.236;2023-02-28T08:23:17;3.80;82.10
68215;DHT22;55036;52.138;5.236;2023-02-28T08:25:44;3.90;82.30
68215;DHT22;55036;52.138;5.236;2023-02-28T08:28:11;3.90;82.30
68215;DHT22;55036;52.138;5.236;2023-02-28T08:30:38;4.00;82.60
68215;DHT22;55036;52.138;5.236;2023-02-28T08:33:07;4.10;82.80
68215;DHT22;55036;52.138;5.236;2023-02-28T08:35:35;4.10;82.80
68215;DHT22;55036;52.138;5.236;2023-02-28T08:38:02;4.20;82.80
68215;DHT22;55036;52.138;5.236;2023-02-28T08:40:29;4.20;82.60
68215;DHT22;55036;52.138;5.236;2023-02-28T08:42:56;4.20;82.60
68215;DHT22;55036;52.138;5.236;2023-02-28T08:45:22;4.30;82.70
68215;DHT22;55036;52.138;5.236;2023-02-28T08:47:49;4.30;82.60
68215;DHT22;55036;52.138;5.236;2023-02-28T08:50:18;4.30;82.90
68215;DHT22;55036;52.138;5.236;2023-02-28T08:52:45;4.40;82.80
68215;DHT22;55036;52.138;5.236;2023-02-28T08:55:12;4.30;82.70
68215;DHT22;55036;52.138;5.236;2023-02-28T08:57:39;4.40;82.80
68215;DHT22;55036;52.138;5.236;2023-02-28T09:00:06;4.40;82.80
68215;DHT22;55036;52.138;5.236;2023-02-28T09:02:34;4.40;82.10
68215;DHT22;55036;52.138;5.236;2023-02-28T09:05:00;4.40;82.40
68215;DHT22;55036;52.138;5.236;2023-02-28T09:07:27;4.40;82.10
68215;DHT22;55036;52.138;5.236;2023-02-28T09:09:54;4.50;81.90
68215;DHT22;55036;52.138;5.236;2023-02-28T09:12:22;4.50;81.10
68215;DHT22;55036;52.138;5.236;2023-02-28T09:14:49;4.60;81.90
68215;DHT22;55036;52.138;5.236;2023-02-28T09:17:16;4.60;81.30
68215;DHT22;55036;52.138;5.236;2023-02-28T09:19:43;4.80;82.10
68215;DHT22;55036;52.138;5.236;2023-02-28T09:22:11;4.90;80.70
68215;DHT22;55036;52.138;5.236;2023-02-28T09:24:38;4.90;79.60
68215;DHT22;55036;52.138;5.236;2023-02-28T09:27:09;4.90;79.60
68215;DHT22;55036;52.138;5.236;2023-02-28T09:29:37;5.00;79.70
68215;DHT22;55036;52.138;5.236;2023-02-28T09:32:04;5.10;79.30
68215;DHT22;55036;52.138;5.236;2023-02-28T09:34:32;5.10;78.50
68215;DHT22;55036;52.138;5.236;2023-02-28T09:36:59;5.20;77.50
68215;DHT22;55036;52.138;5.236;2023-02-28T09:39:26;5.30;77.60
68215;DHT22;55036;52.138;5.236;2023-02-28T09:41:54;5.40;78.40
68215;DHT22;55036;52.138;5.236;2023-02-28T09:44:37;5.50;75.50
68215;DHT22;55036;52.138;5.236;2023-02-28T09:49:42;5.90;74.50
68215;DHT22;55036;52.138;5.236;2023-02-28T09:52:16;6.00;73.90
68215;DHT22;55036;52.138;5.236;2023-02-28T09:54:43;6.10;74.10
68215;DHT22;55036;52.138;5.236;2023-02-28T09:57:29;6.30;74.30
68215;DHT22;55036;52.138;5.236;2023-02-28T10:05:14;6.70;67.90
68215;DHT22;55036;52.138;5.236;2023-02-28T10:08:14;6.80;64.10
68215;DHT22;55036;52.138;5.236;2023-02-28T10:10:45;6.80;64.20
68215;DHT22;55036;52.138;5.236;2023-02-28T10:15:58;6.80;64.60
68215;DHT22;55036;52.138;5.236;2023-02-28T10:18:30;6.60;61.30
68215;DHT22;55036;52.138;5.236;2023-02-28T10:21:01;6.50;55.80
68215;DHT22;55036;52.138;5.236;2023-02-28T10:23:34;6.60;62.10
68215;DHT22;55036;52.138;5.236;2023-02-28T10:26:28;6.80;59.70
68215;DHT22;55036;52.138;5.236;2023-02-28T10:28:57;6.90;61.80
68215;DHT22;55036;52.138;5.236;2023-02-28T10:31:23;6.90;54.50
68215;DHT22;55036;52.138;5.236;2023-02-28T10:33:52;7.00;54.50
68215;DHT22;55036;52.138;5.236;2023-02-28T10:36:21;7.20;60.00
68215;DHT22;55036;52.138;5.236;2023-02-28T10:38:49;7.30;49.50
68215;DHT22;55036;52.138;5.236;2023-02-28T10:41:37;7.40;53.10
68215;DHT22;55036;52.138;5.236;2023-02-28T10:44:22;7.50;53.00
68215;DHT22;55036;52.138;5.236;2023-02-28T10:46:50;7.80;52.70
68215;DHT22;55036;52.138;5.236;2023-02-28T10:49:23;8.00;54.10
68215;DHT22;55036;52.138;5.236;2023-02-28T10:51:59;8.20;49.70
68215;DHT22;55036;52.138;5.236;2023-02-28T10:54:34;8.00;46.30
68215;DHT22;55036;52.138;5.236;2023-02-28T10:57:08;7.80;51.20
68215;DHT22;55036;52.138;5.236;2023-02-28T10:59:36;8.00;50.70
68215;DHT22;55036;52.138;5.236;2023-02-28T11:02:30;8.00;51.50
68215;DHT22;55036;52.138;5.236;2023-02-28T11:05:13;8.00;46.10
68215;DHT22;55036;52.138;5.236;2023-02-28T11:07:55;8.10;49.30
68215;DHT22;55036;52.138;5.236;2023-02-28T11:10:26;8.10;47.50
68215;DHT22;55036;52.138;5.236;2023-02-28T11:12:56;8.40;48.20
68215;DHT22;55036;52.138;5.236;2023-02-28T11:15:28;8.40;45.40
68215;DHT22;55036;52.138;5.236;2023-02-28T11:20:33;8.30;42.40
68215;DHT22;55036;52.138;5.236;2023-02-28T11:23:03;7.90;42.10
68215;DHT22;55036;52.138;5.236;2023-02-28T11:25:36;7.80;42.40
68215;DHT22;55036;52.138;5.236;2023-02-28T11:28:23;7.80;45.40
68215;DHT22;55036;52.138;5.236;2023-02-28T11:31:17;8.00;43.20
68215;DHT22;55036;52.138;5.236;2023-02-28T11:33:52;7.90;43.10
68215;DHT22;55036;52.138;5.236;2023-02-28T11:36:22;8.00;42.40
68215;DHT22;55036;52.138;5.236;2023-02-28T11:38:54;8.10;46.40
68215;DHT22;55036;52.138;5.236;2023-02-28T11:44:23;8.30;42.30
68215;DHT22;55036;52.138;5.236;2023-02-28T11:52:59;7.90;42.40
68215;DHT22;55036;52.138;5.236;2023-02-28T11:55:39;7.70;43.40
68215;DHT22;55036;52.138;5.236;2023-02-28T11:58:30;8.00;42.10
68215;DHT22;55036;52.138;5.236;2023-02-28T12:01:18;7.80;42.00
68215;DHT22;55036;52.138;5.236;2023-02-28T12:06:30;7.80;41.60
68215;DHT22;55036;52.138;5.236;2023-02-28T12:14:54;8.10;41.70
68215;DHT22;55036;52.138;5.236;2023-02-28T12:17:38;8.10;41.20
68215;DHT22;55036;52.138;5.236;2023-02-28T12:28:42;8.40;40.90
68215;DHT22;55036;52.138;5.236;2023-02-28T12:31:24;8.20;39.00
68215;DHT22;55036;52.138;5.236;2023-02-28T12:33:53;8.10;40.20
68215;DHT22;55036;52.138;5.236;2023-02-28T12:36:22;8.10;39.70
68215;DHT22;55036;52.138;5.236;2023-02-28T12:39:00;8.10;39.90
68215;DHT22;55036;52.138;5.236;2023-02-28T12:41:42;8.20;40.70
68215;DHT22;55036;52.138;5.236;2023-02-28T12:44:35;8.30;39.20
68215;DHT22;55036;52.138;5.236;2023-02-28T12:47:05;8.30;41.50
68215;DHT22;55036;52.138;5.236;2023-02-28T12:49:49;8.60;41.40
68215;DHT22;55036;52.138;5.236;2023-02-28T12:52:25;8.70;40.50
68215;DHT22;55036;52.138;5.236;2023-02-28T12:57:42;8.60;37.30
68215;DHT22;55036;52.138;5.236;2023-02-28T13:00:14;8.50;39.30
68215;DHT22;55036;52.138;5.236;2023-02-28T13:11:07;8.20;37.80
68215;DHT22;55036;52.138;5.236;2023-02-28T13:13:46;8.20;39.30
68215;DHT22;55036;52.138;5.236;2023-02-28T13:16:14;8.40;38.90
68215;DHT22;55036;52.138;5.236;2023-02-28T13:18:45;8.40;38.90
68215;DHT22;55036;52.138;5.236;2023-02-28T13:21:28;8.60;39.50
68215;DHT22;55036;52.138;5.236;2023-02-28T13:24:00;8.90;39.80
68215;DHT22;55036;52.138;5.236;2023-02-28T13:29:01;8.60;38.90
68215;DHT22;55036;52.138;5.236;2023-02-28T13:31:28;8.70;38.20
68215;DHT22;55036;52.138;5.236;2023-02-28T13:36:29;8.70;38.10
68215;DHT22;55036;52.138;5.236;2023-02-28T13:38:58;8.50;38.20
68215;DHT22;55036;52.138;5.236;2023-02-28T13:44:05;8.30;38.00
68215;DHT22;55036;52.138;5.236;2023-02-28T13:47:19;8.40;38.20
68215;DHT22;55036;52.138;5.236;2023-02-28T14:05:29;8.30;38.40
68215;DHT22;55036;52.138;5.236;2023-02-28T14:07:59;8.40;39.10
68215;DHT22;55036;52.138;5.236;2023-02-28T14:10:28;8.60;39.30
68215;DHT22;55036;52.138;5.236;2023-02-28T14:13:45;8.70;38.30
68215;DHT22;55036;52.138;5.236;2023-02-28T14:16:02;8.40;38.80
68215;DHT22;55036;52.138;5.236;2023-02-28T14:18:32;8.40;38.10
68215;DHT22;55036;52.138;5.236;2023-02-28T14:24:30;8.40;39.20
68215;DHT22;55036;52.138;5.236;2023-02-28T14:30:11;8.40;38.30
68215;DHT22;55036;52.138;5.236;2023-02-28T14:35:35;8.50;38.80
68215;DHT22;55036;52.138;5.236;2023-02-28T14:38:14;8.50;37.90
68215;DHT22;55036;52.138;5.236;2023-02-28T14:40:45;8.30;39.00
68215;DHT22;55036;52.138;5.236;2023-02-28T14:43:23;8.40;39.10
68215;DHT22;55036;52.138;5.236;2023-02-28T14:45:56;8.40;38.90
68215;DHT22;55036;52.138;5.236;2023-02-28T14:48:24;8.50;37.60
68215;DHT22;55036;52.138;5.236;2023-02-28T14:50:57;8.30;38.20
68215;DHT22;55036;52.138;5.236;2023-02-28T14:53:28;8.40;38.90
68215;DHT22;55036;52.138;5.236;2023-02-28T14:55:56;8.40;37.90
68215;DHT22;55036;52.138;5.236;2023-02-28T14:58:28;8.30;37.90
68215;DHT22;55036;52.138;5.236;2023-02-28T15:00:57;8.40;37.80
68215;DHT22;55036;52.138;5.236;2023-02-28T15:05:59;8.20;38.20
68215;DHT22;55036;52.138;5.236;2023-02-28T15:08:26;8.30;38.40
68215;DHT22;55036;52.138;5.236;2023-02-28T15:11:07;8.10;38.80
68215;DHT22;55036;52.138;5.236;2023-02-28T15:13:52;8.20;38.90
68215;DHT22;55036;52.138;5.236;2023-02-28T15:16:37;8.10;39.50
68215;DHT22;55036;52.138;5.236;2023-02-28T15:19:14;8.20;39.50
68215;DHT22;55036;52.138;5.236;2023-02-28T15:21:48;8.30;38.80
68215;DHT22;55036;52.138;5.236;2023-02-28T15:24:59;8.20;38.70
68215;DHT22;55036;52.138;5.236;2023-02-28T15:27:13;8.30;39.20
68215;DHT22;55036;52.138;5.236;2023-02-28T15:29:48;8.20;38.00
68215;DHT22;55036;52.138;5.236;2023-02-28T15:32:43;8.10;38.40
68215;DHT22;55036;52.138;5.236;2023-02-28T15:35:37;8.10;39.20
68215;DHT22;55036;52.138;5.236;2023-02-28T15:38:26;8.00;38.70
68215;DHT22;55036;52.138;5.236;2023-02-28T15:40:55;8.10;38.10
68215;DHT22;55036;52.138;5.236;2023-02-28T15:43:27;8.00;38.40
68215;DHT22;55036;52.138;5.236;2023-02-28T15:46:09;7.80;38.50
68215;DHT22;55036;52.138;5.236;2023-02-28T15:51:24;7.80;39.40
68215;DHT22;55036;52.138;5.236;2023-02-28T15:53:56;7.90;39.60
68215;DHT22;55036;52.138;5.236;2023-02-28T15:56:35;7.80;39.20
68215;DHT22;55036;52.138;5.236;2023-02-28T15:59:48;7.80;39.40
68215;DHT22;55036;52.138;5.236;2023-02-28T16:04:37;7.60;39.30
68215;DHT22;55036;52.138;5.236;2023-02-28T16:07:06;7.70;39.70
68215;DHT22;55036;52.138;5.236;2023-02-28T16:09:38;7.80;39.50
68215;DHT22;55036;52.138;5.236;2023-02-28T16:12:05;7.80;39.50
68215;DHT22;55036;52.138;5.236;2023-02-28T16:14:32;7.80;40.10
68215;DHT22;55036;52.138;5.236;2023-02-28T16:17:18;7.80;40.10
68215;DHT22;55036;52.138;5.236;2023-02-28T16:19:45;7.90;39.40
68215;DHT22;55036;52.138;5.236;2023-02-28T16:22:12;7.90;39.40
68215;DHT22;55036;52.138;5.236;2023-02-28T16:24:39;7.70;39.20
68215;DHT22;55036;52.138;5.236;2023-02-28T16:27:06;7.50;40.20
68215;DHT22;55036;52.138;5.236;2023-02-28T16:29:37;7.30;40.20
68215;DHT22;55036;52.138;5.236;2023-02-28T16:32:04;7.40;40.40
68215;DHT22;55036;52.138;5.236;2023-02-28T16:34:32;7.40;39.80
68215;DHT22;55036;52.138;5.236;2023-02-28T16:36:58;7.30;40.30
68215;DHT22;55036;52.138;5.236;2023-02-28T16:39:25;7.30;40.20
68215;DHT22;55036;52.138;5.236;2023-02-28T16:41:52;7.30;40.70
68215;DHT22;55036;52.138;5.236;2023-02-28T16:44:30;7.20;40.70
68215;DHT22;55036;52.138;5.236;2023-02-28T16:46:59;7.20;40.80
68215;DHT22;55036;52.138;5.236;2023-02-28T16:49:26;7.10;41.00
68215;DHT22;55036;52.138;5.236;2023-02-28T16:51:53;7.00;41.00
68215;DHT22;55036;52.138;5.236;2023-02-28T16:54:20;7.00;41.00
68215;DHT22;55036;52.138;5.236;2023-02-28T16:56:48;7.00;41.10
68215;DHT22;55036;52.138;5.236;2023-02-28T16:59:18;6.90;41.50
68215;DHT22;55036;52.138;5.236;2023-02-28T17:01:46;7.00;41.60
68215;DHT22;55036;52.138;5.236;2023-02-28T17:04:13;6.90;41.70
68215;DHT22;55036;52.138;5.236;2023-02-28T17:06:40;6.90;42.20
68215;DHT22;55036;52.138;5.236;2023-02-28T17:09:22;6.80;43.00
68215;DHT22;55036;52.138;5.236;2023-02-28T17:11:56;6.80;43.00
68215;DHT22;55036;52.138;5.236;2023-02-28T17:14:23;6.70;43.30
68215;DHT22;55036;52.138;5.236;2023-02-28T17:16:50;6.70;43.40
68215;DHT22;55036;52.138;5.236;2023-02-28T17:19:17;6.60;44.20
68215;DHT22;55036;52.138;5.236;2023-02-28T17:21:45;6.60;43.90
68215;DHT22;55036;52.138;5.236;2023-02-28T17:24:12;6.50;44.80
68215;DHT22;55036;52.138;5.236;2023-02-28T17:26:44;6.50;44.80
68215;DHT22;55036;52.138;5.236;2023-02-28T17:29:15;6.50;45.90
68215;DHT22;55036;52.138;5.236;2023-02-28T17:31:42;6.40;45.90
68215;DHT22;55036;52.138;5.236;2023-02-28T17:34:09;6.40;46.50
68215;DHT22;55036;52.138;5.236;2023-02-28T17:36:36;6.30;47.90
68215;DHT22;55036;52.138;5.236;2023-02-28T17:39:05;6.20;46.90
68215;DHT22;55036;52.138;5.236;2023-02-28T17:41:35;6.20;46.70
68215;DHT22;55036;52.138;5.236;2023-02-28T17:44:02;6.20;47.20
68215;DHT22;55036;52.138;5.236;2023-02-28T17:46:28;6.10;47.50
68215;DHT22;55036;52.138;5.236;2023-02-28T17:48:55;6.10;48.10
68215;DHT22;55036;52.138;5.236;2023-02-28T17:51:23;6.10;47.60
68215;DHT22;55036;52.138;5.236;2023-02-28T17:53:51;6.00;47.90
68215;DHT22;55036;52.138;5.236;2023-02-28T17:56:21;6.00;48.70
68215;DHT22;55036;52.138;5.236;2023-02-28T17:58:50;5.90;50.20
68215;DHT22;55036;52.138;5.236;2023-02-28T18:01:17;5.80;49.60
68215;DHT22;55036;52.138;5.236;2023-02-28T18:03:44;5.80;49.10
68215;DHT22;55036;52.138;5.236;2023-02-28T18:06:22;5.70;49.80
68215;DHT22;55036;52.138;5.236;2023-02-28T18:08:51;5.60;51.40
68215;DHT22;55036;52.138;5.236;2023-02-28T18:11:19;5.50;49.80
68215;DHT22;55036;52.138;5.236;2023-02-28T18:13:47;5.60;50.00
68215;DHT22;55036;52.138;5.236;2023-02-28T18:16:15;5.60;51.20
68215;DHT22;55036;52.138;5.236;2023-02-28T18:18:42;5.50;50.00